Time;durP1;ratioP1;P1;durP2;ratioP2;P2;SDS_P1;SDS_P2;PMS_P1;PMS_P2;Temp;Humidity;BMP_temperature;BMP_pressure;BME280_temperature;BME280_humidity;BME280_pressure;Samples;Min_cycle;Max_cycle;Signal;HPM_P1;HPM_P2
2022/10/18 00:01:44;;;;;;;;;;;;;;;;;;5113998;28;2093;-51
2022/10/18 00:04:12;;;;;;;;;;;;;;;;;;5113872;28;2009;-46
2022/10/18 00:06:39;;;;;;;;;;;;;;;;;;5114238;27;1979;-51
2022/10/18 00:09:09;;;;;;;;;;;;;;;;;;5113665;28;1929;-49
2022/10/18 00:11:36;;;;;;;;;;;;;;;;;;5113992;28;1808;-49
2022/10/18 00:14:03;;;;;;;;;;;;;;;;;;5114148;28;1674;-50
2022/10/18 00:16:31;;;;;;;;;;;;;;;;;;5114079;28;1934;-47
2022/10/18 00:19:00;;;;;;;;;;;;;;;;;;5114116;28;1796;-46
2022/10/18 00:21:28;;;;;;;;;;;;;;;;;;5113563;28;1948;-51
2022/10/18 00:23:55;;;;;;;;;;;;;;;;;;5113412;27;1926;-48
2022/10/18 00:26:26;;;;;;;;;;;;;;;;;;5113691;28;1612;-49
2022/10/18 00:28:54;;;;;;;;;;;;;;;;;;5112413;28;1884;-51
2022/10/18 00:31:21;;;;;;;;;;;;;;;;;;5113845;28;1638;-48
2022/10/18 00:33:51;;;;;;;;;;;;;;;;;;5102281;28;1941;-51
2022/10/18 00:36:19;;;;;;;;;;;;;;;;;;5093130;28;1268;-49
2022/10/18 00:38:47;;;;;;;;;;;;;;;;;;5092735;28;1910;-52
2022/10/18 00:41:15;;;;;;;;;;;;;;;;;;5092756;28;1606;-50
2022/10/18 00:43:56;;;;;;;;;;;;;;;;;;5092917;28;1882;-49
2022/10/18 00:46:24;;;;;;;;;;;;;;;;;;5092775;28;1828;-49
2022/10/18 00:48:52;;;;;;;;;;;;;;;;;;5092923;28;1961;-51
2022/10/18 00:51:21;;;;;;;;;;;;;;;;;;5092442;28;2134;-51
2022/10/18 00:53:48;;;;;;;;;;;;;;;;;;5092914;28;2128;-48
2022/10/18 00:56:16;;;;;;;;;;;;;;;;;;5092645;28;2073;-47
2022/10/18 00:58:43;;;;;;;;;;;;;;;;;;5092576;28;2141;-53
2022/10/18 01:01:10;;;;;;;;;;;;;;;;;;5092442;28;1600;-51
2022/10/18 01:03:38;;;;;;;;;;;;;;;;;;5092166;28;1680;-42
2022/10/18 01:06:06;;;;;;;;;;;;;;;;;;5092750;28;2210;-50
2022/10/18 01:08:36;;;;;;;;;;;;;;;;;;5092597;28;1909;-50
2022/10/18 01:11:06;;;;;;;;;;;;;;;;;;5092676;28;2181;-49
2022/10/18 01:13:52;;;;;;;;;;;;;;;;;;5074368;28;1677;-52
2022/10/18 01:16:31;;;;;;;;;;;;;;;;;;5092267;28;1576;-51
2022/10/18 01:19:01;;;;;;;;;;;;;;;;;;5092183;28;1921;-52
2022/10/18 01:22:01;;;;;;;;;;;;;;;;;;5091772;28;1691;-50
2022/10/18 01:24:45;;;;;;;;;;;;;;;;;;5069273;28;1418;-48
2022/10/18 01:27:31;;;;;;;;;;;;;;;;;;5092111;28;2399;-49
2022/10/18 01:30:31;;;;;;;;;;;;;;;;;;5091964;28;1823;-49
2022/10/18 01:33:24;;;;;;;;;;;;;;;;;;5072857;28;1476;-54
2022/10/18 01:35:55;;;;;;;;;;;;;;;;;;5094867;28;1450;-46
2022/10/18 01:38:23;;;;;;;;;;;;;;;;;;5112173;28;1810;-52
2022/10/18 01:40:51;;;;;;;;;;;;;;;;;;5112040;28;1272;-49
2022/10/18 01:43:20;;;;;;;;;;;;;;;;;;5111941;28;1983;-53
2022/10/18 01:45:48;;;;;;;;;;;;;;;;;;5112020;28;1601;-49
2022/10/18 01:48:15;;;;;;;;;;;;;;;;;;5110647;28;2027;-51
2022/10/18 01:50:42;;;;;;;;;;;;;;;;;;5112150;28;1993;-51
2022/10/18 01:53:39;;;;;;;;;;;;;;;;;;5110923;28;2333;-49
2022/10/18 01:56:06;;;;;;;;;;;;;;;;;;5107451;28;2022;-49
2022/10/18 01:58:35;;;;;;;;;;;;;;;;;;5112082;28;1725;-49
2022/10/18 02:01:05;;;;;;;;;;;;;;;;;;5111888;28;1875;-49
2022/10/18 02:03:33;;;;;;;;;;;;;;;;;;5112118;28;1953;-53
2022/10/18 02:06:03;;;;;;;;;;;;;;;;;;5111825;28;1561;-51
2022/10/18 02:08:34;;;;;;;;;;;;;;;;;;5111722;28;1904;-50
2022/10/18 02:11:12;;;;;;;;;;;;;;;;;;5111504;28;2160;-49
2022/10/18 02:13:43;;;;;;;;;;;;;;;;;;5112064;28;1967;-52
2022/10/18 02:16:49;;;;;;;;;;;;;;;;;;5112033;28;2080;-52
2022/10/18 02:19:19;;;;;;;;;;;;;;;;;;5087943;28;1979;-47
2022/10/18 02:21:47;;;;;;;;;;;;;;;;;;5070021;28;1457;-49
2022/10/18 02:24:17;;;;;;;;;;;;;;;;;;5100309;28;2156;-52
2022/10/18 02:26:44;;;;;;;;;;;;;;;;;;5111586;28;1729;-47
2022/10/18 02:29:11;;;;;;;;;;;;;;;;;;5111256;28;1995;-54
2022/10/18 02:31:42;;;;;;;;;;;;;;;;;;5111848;28;2013;-54
2022/10/18 02:34:23;;;;;;;;;;;;;;;;;;5097577;28;1893;-48
2022/10/18 02:36:52;;;;;;;;;;;;;;;;;;5091328;28;1832;-50
2022/10/18 02:39:33;;;;;;;;;;;;;;;;;;5091212;28;2020;-45
2022/10/18 02:42:05;;;;;;;;;;;;;;;;;;5091068;28;1897;-49
2022/10/18 02:44:33;;;;;;;;;;;;;;;;;;5091101;28;1708;-46
2022/10/18 02:47:00;;;;;;;;;;;;;;;;;;5091965;28;2017;-49
2022/10/18 02:49:27;;;;;;;;;;;;;;;;;;5094998;28;1800;-43
2022/10/18 02:51:54;;;;;;;;;;;;;;;;;;5094703;28;1733;-53
2022/10/18 02:54:22;;;;;;;;;;;;;;;;;;5095170;28;1897;-49
2022/10/18 02:56:49;;;;;;;;;;;;;;;;;;5093701;28;2611;-51
2022/10/18 02:59:16;;;;;;;;;;;;;;;;;;5094861;28;1833;-46
2022/10/18 03:01:44;;;;;;;;;;;;;;;;;;5093817;28;1696;-48
2022/10/18 03:04:11;;;;;;;;;;;;;;;;;;5094362;28;2186;-48
2022/10/18 03:06:40;;;;;;;;;;;;;;;;;;5094039;28;2157;-47
2022/10/18 03:09:08;;;;;;;;;;;;;;;;;;5093815;28;2051;-49
2022/10/18 03:11:35;;;;;;;;;;;;;;;;;;5094809;28;1787;-50
2022/10/18 03:14:02;;;;;;;;;;;;;;;;;;5094952;28;2007;-45
2022/10/18 03:16:30;;;;;;;;;;;;;;;;;;5094706;28;2015;-49
2022/10/18 03:18:58;;;;;;;;;;;;;;;;;;5094607;28;1504;-48
2022/10/18 03:21:25;;;;;;;;;;;;;;;;;;5093016;28;2413;-49
2022/10/18 03:23:52;;;;;;;;;;;;;;;;;;5094547;28;2086;-51
2022/10/18 03:26:20;;;;;;;;;;;;;;;;;;5094406;28;2139;-51
2022/10/18 03:28:47;;;;;;;;;;;;;;;;;;5094291;28;1910;-42
2022/10/18 03:31:15;;;;;;;;;;;;;;;;;;5094262;28;1852;-50
2022/10/18 03:33:42;;;;;;;;;;;;;;;;;;5104160;28;1983;-52
2022/10/18 03:36:09;;;;;;;;;;;;;;;;;;5114938;28;2030;-50
2022/10/18 03:38:36;;;;;;;;;;;;;;;;;;5114593;28;1643;-53
2022/10/18 03:41:03;;;;;;;;;;;;;;;;;;5114415;28;2106;-49
2022/10/18 03:43:31;;;;;;;;;;;;;;;;;;5114374;28;2271;-45
2022/10/18 03:45:58;;;;;;;;;;;;;;;;;;5114582;28;2143;-48
2022/10/18 03:48:25;;;;;;;;;;;;;;;;;;5114062;28;1989;-51
2022/10/18 03:50:52;;;;;;;;;;;;;;;;;;5114486;28;1471;-54
2022/10/18 03:53:19;;;;;;;;;;;;;;;;;;5114356;28;2011;-47
2022/10/18 03:55:50;;;;;;;;;;;;;;;;;;5114509;28;1823;-53
2022/10/18 03:58:17;;;;;;;;;;;;;;;;;;5113626;28;1769;-49
2022/10/18 04:00:47;;;;;;;;;;;;;;;;;;5114391;28;2129;-49
2022/10/18 04:03:14;;;;;;;;;;;;;;;;;;5114297;28;1703;-54
2022/10/18 04:05:41;;;;;;;;;;;;;;;;;;5113640;28;1632;-50
2022/10/18 04:08:09;;;;;;;;;;;;;;;;;;5113759;28;1976;-51
2022/10/18 04:10:37;;;;;;;;;;;;;;;;;;5113899;28;1699;-47
2022/10/18 04:13:04;;;;;;;;;;;;;;;;;;5112811;28;1835;-46
2022/10/18 04:15:31;;;;;;;;;;;;;;;;;;5113662;28;1733;-52
2022/10/18 04:17:59;;;;;;;;;;;;;;;;;;5113865;28;2121;-50
2022/10/18 04:20:28;;;;;;;;;;;;;;;;;;5113845;28;1922;-48
2022/10/18 04:22:56;;;;;;;;;;;;;;;;;;5113729;28;2126;-51
2022/10/18 04:25:24;;;;;;;;;;;;;;;;;;5113671;28;2086;-54
2022/10/18 04:27:51;;;;;;;;;;;;;;;;;;5113450;28;1976;-44
2022/10/18 04:30:18;;;;;;;;;;;;;;;;;;5113479;28;1833;-48
2022/10/18 04:32:45;;;;;;;;;;;;;;;;;;5113424;28;1921;-47
2022/10/18 04:35:12;;;;;;;;;;;;;;;;;;5113453;28;2237;-51
2022/10/18 04:37:40;;;;;;;;;;;;;;;;;;5113381;28;1953;-51
2022/10/18 04:40:07;;;;;;;;;;;;;;;;;;5108420;28;1931;-51
2022/10/18 04:42:34;;;;;;;;;;;;;;;;;;5098332;28;1847;-45
2022/10/18 04:45:01;;;;;;;;;;;;;;;;;;5093733;28;1855;-51
2022/10/18 04:47:28;;;;;;;;;;;;;;;;;;5112930;28;2026;-41
2022/10/18 04:49:56;;;;;;;;;;;;;;;;;;5112924;28;2310;-41
2022/10/18 04:52:23;;;;;;;;;;;;;;;;;;5113128;28;2284;-40
2022/10/18 04:54:50;;;;;;;;;;;;;;;;;;5113099;28;1838;-40
2022/10/18 04:57:17;;;;;;;;;;;;;;;;;;5111736;28;2036;-41
2022/10/18 04:59:44;;;;;;;;;;;;;;;;;;5092600;28;1997;-40
2022/10/18 05:02:11;;;;;;;;;;;;;;;;;;5092575;28;1895;-41
2022/10/18 05:04:38;;;;;;;;;;;;;;;;;;5092380;28;1675;-53
2022/10/18 05:07:05;;;;;;;;;;;;;;;;;;5092491;28;2033;-41
2022/10/18 05:09:32;;;;;;;;;;;;;;;;;;5092440;28;2081;-41
2022/10/18 05:11:59;;;;;;;;;;;;;;;;;;5091052;28;1871;-40
2022/10/18 05:14:27;;;;;;;;;;;;;;;;;;5092331;28;1587;-41
2022/10/18 05:16:54;;;;;;;;;;;;;;;;;;5092393;28;1677;-41
2022/10/18 05:19:23;;;;;;;;;;;;;;;;;;5092425;28;2115;-41
2022/10/18 05:21:50;;;;;;;;;;;;;;;;;;5092536;28;2109;-45
2022/10/18 05:24:17;;;;;;;;;;;;;;;;;;5091983;28;1412;-40
2022/10/18 05:26:45;;;;;;;;;;;;;;;;;;5091883;28;2156;-40
2022/10/18 05:29:13;;;;;;;;;;;;;;;;;;5108862;28;2326;-41
2022/10/18 05:31:40;;;;;;;;;;;;;;;;;;5112240;28;2021;-52
2022/10/18 05:34:07;;;;;;;;;;;;;;;;;;5098447;28;2106;-40
2022/10/18 05:36:34;;;;;;;;;;;;;;;;;;5091914;28;1827;-40
2022/10/18 05:39:03;;;;;;;;;;;;;;;;;;5092117;28;1835;-40
2022/10/18 05:41:31;;;;;;;;;;;;;;;;;;5091889;28;1687;-40
2022/10/18 05:44:01;;;;;;;;;;;;;;;;;;5091691;28;2330;-40
2022/10/18 05:46:28;;;;;;;;;;;;;;;;;;5091712;28;1816;-41
2022/10/18 05:48:55;;;;;;;;;;;;;;;;;;5091935;28;1981;-41
2022/10/18 05:51:22;;;;;;;;;;;;;;;;;;5091663;28;1468;-42
2022/10/18 05:53:49;;;;;;;;;;;;;;;;;;5091727;28;1964;-40
2022/10/18 05:56:16;;;;;;;;;;;;;;;;;;5091695;28;2004;-52
2022/10/18 05:58:49;;;;;;;;;;;;;;;;;;5092173;28;2159;-41
2022/10/18 06:01:16;;;;;;;;;;;;;;;;;;5091743;28;2030;-52
2022/10/18 06:03:43;;;;;;;;;;;;;;;;;;5091587;28;1769;-49
2022/10/18 06:06:11;;;;;;;;;;;;;;;;;;5091362;28;1414;-40
2022/10/18 06:08:39;;;;;;;;;;;;;;;;;;5091193;28;1913;-41
2022/10/18 06:11:10;;;;;;;;;;;;;;;;;;5091364;28;2235;-41
2022/10/18 06:13:41;;;;;;;;;;;;;;;;;;5090965;28;1757;-41
2022/10/18 06:16:09;;;;;;;;;;;;;;;;;;5092638;28;1874;-50
2022/10/18 06:18:36;;;;;;;;;;;;;;;;;;5108884;28;1601;-54
2022/10/18 06:21:03;;;;;;;;;;;;;;;;;;5111362;28;1706;-50
2022/10/18 06:23:31;;;;;;;;;;;;;;;;;;5111487;28;1982;-45
2022/10/18 06:25:59;;;;;;;;;;;;;;;;;;5111366;28;2214;-50
2022/10/18 06:28:27;;;;;;;;;;;;;;;;;;5111446;28;1998;-42
2022/10/18 06:30:54;;;;;;;;;;;;;;;;;;5111666;28;1702;-52
2022/10/18 06:33:21;;;;;;;;;;;;;;;;;;5103883;28;1598;-47
2022/10/18 06:35:59;;;;;;;;;;;;;;;;;;5091141;28;1863;-51
2022/10/18 06:38:27;;;;;;;;;;;;;;;;;;5091230;28;2171;-49
2022/10/18 06:40:54;;;;;;;;;;;;;;;;;;5091479;28;1539;-43
2022/10/18 06:43:22;;;;;;;;;;;;;;;;;;5109888;28;2148;-53
2022/10/18 06:45:49;;;;;;;;;;;;;;;;;;5111373;28;2041;-53
2022/10/18 06:48:17;;;;;;;;;;;;;;;;;;5111300;28;1983;-44
2022/10/18 06:50:55;;;;;;;;;;;;;;;;;;5111041;28;1908;-49
2022/10/18 06:53:24;;;;;;;;;;;;;;;;;;5111194;28;2099;-49
2022/10/18 06:55:52;;;;;;;;;;;;;;;;;;5111090;28;1768;-47
2022/10/18 06:58:19;;;;;;;;;;;;;;;;;;5111250;28;1920;-46
2022/10/18 07:00:46;;;;;;;;;;;;;;;;;;5111355;28;2360;-51
2022/10/18 07:03:13;;;;;;;;;;;;;;;;;;5111248;28;1898;-53
2022/10/18 07:05:40;;;;;;;;;;;;;;;;;;5111246;28;1725;-44
2022/10/18 07:08:07;;;;;;;;;;;;;;;;;;5111114;28;2104;-51
2022/10/18 07:10:34;;;;;;;;;;;;;;;;;;5110902;28;1985;-54
2022/10/18 07:13:01;;;;;;;;;;;;;;;;;;5111302;28;2115;-48
2022/10/18 07:15:58;;;;;;;;;;;;;;;;;;5110994;28;2196;-53
2022/10/18 07:18:25;;;;;;;;;;;;;;;;;;5111060;28;2023;-44
2022/10/18 07:20:53;;;;;;;;;;;;;;;;;;5110876;28;2103;-47
2022/10/18 07:23:22;;;;;;;;;;;;;;;;;;5111053;28;1768;-43
2022/10/18 07:25:49;;;;;;;;;;;;;;;;;;5110921;28;1453;-48
2022/10/18 07:28:16;;;;;;;;;;;;;;;;;;5110986;28;1907;-48
2022/10/18 07:30:43;;;;;;;;;;;;;;;;;;5110646;28;1870;-51
2022/10/18 07:33:10;;;;;;;;;;;;;;;;;;5104906;28;1918;-50
2022/10/18 07:35:37;;;;;;;;;;;;;;;;;;5093737;28;2094;-54
2022/10/18 07:38:04;;;;;;;;;;;;;;;;;;5094154;28;1572;-52
2022/10/18 07:40:31;;;;;;;;;;;;;;;;;;5094353;28;1448;-49
2022/10/18 07:42:58;;;;;;;;;;;;;;;;;;5093846;28;2045;-51
2022/10/18 07:45:30;;;;;;;;;;;;;;;;;;5094080;28;1649;-48
2022/10/18 07:47:58;;;;;;;;;;;;;;;;;;5093667;28;1852;-51
2022/10/18 07:50:25;;;;;;;;;;;;;;;;;;5092456;28;2170;-52
2022/10/18 07:52:52;;;;;;;;;;;;;;;;;;5092472;28;1713;-51
2022/10/18 07:55:20;;;;;;;;;;;;;;;;;;5093850;28;2133;-52
2022/10/18 07:57:47;;;;;;;;;;;;;;;;;;5093572;28;2001;-47
2022/10/18 08:00:14;;;;;;;;;;;;;;;;;;5092325;28;2150;-47
2022/10/18 08:02:41;;;;;;;;;;;;;;;;;;5092223;28;1701;-48
2022/10/18 08:05:09;;;;;;;;;;;;;;;;;;5093545;28;1582;-46
2022/10/18 08:07:36;;;;;;;;;;;;;;;;;;5093612;28;1677;-46
2022/10/18 08:10:05;;;;;;;;;;;;;;;;;;5093517;28;2090;-44
2022/10/18 08:12:32;;;;;;;;;;;;;;;;;;5093626;28;2093;-49
2022/10/18 08:14:59;;;;;;;;;;;;;;;;;;5093060;28;1749;-51
2022/10/18 08:17:26;;;;;;;;;;;;;;;;;;5093509;28;1769;-48
2022/10/18 08:19:53;;;;;;;;;;;;;;;;;;5093242;28;1796;-51
2022/10/18 08:22:37;;;;;;;;;;;;;;;;;;5093144;28;1642;-51
2022/10/18 08:25:05;;;;;;;;;;;;;;;;;;5093081;28;2101;-51
2022/10/18 08:27:32;;;;;;;;;;;;;;;;;;5093355;28;1532;-45
2022/10/18 08:30:00;;;;;;;;;;;;;;;;;;5092990;28;1988;-49
2022/10/18 08:32:28;;;;;;;;;;;;;;;;;;5093033;28;1200;-44
2022/10/18 08:34:55;;;;;;;;;;;;;;;;;;5092902;28;1798;-47
2022/10/18 08:37:22;;;;;;;;;;;;;;;;;;5092854;28;1835;-50
2022/10/18 08:39:49;;;;;;;;;;;;;;;;;;5092663;28;1745;-45
2022/10/18 08:42:22;;;;;;;;;;;;;;;;;;5092946;28;1842;-43
2022/10/18 08:44:50;;;;;;;;;;;;;;;;;;5092649;28;2162;-48
2022/10/18 08:47:19;;;;;;;;;;;;;;;;;;5092747;28;1884;-49
2022/10/18 08:49:50;;;;;;;;;;;;;;;;;;5092846;28;1983;-48
2022/10/18 08:52:33;;;;;;;;;;;;;;;;;;5092872;28;1868;-51
2022/10/18 08:55:02;;;;;;;;;;;;;;;;;;5092578;28;2261;-50
2022/10/18 08:57:29;;;;;;;;;;;;;;;;;;5091271;28;1495;-50
2022/10/18 08:59:57;;;;;;;;;;;;;;;;;;5092431;28;2393;-50
2022/10/18 09:02:30;;;;;;;;;;;;;;;;;;5092425;28;1396;-47
2022/10/18 09:05:21;;;;;;;;;;;;;;;;;;5092196;28;1519;-47
2022/10/18 09:07:55;;;;;;;;;;;;;;;;;;5092470;28;1647;-52
2022/10/18 09:10:34;;;;;;;;;;;;;;;;;;5092305;28;1965;-49
2022/10/18 09:13:13;;;;;;;;;;;;;;;;;;5092686;28;1886;-53
2022/10/18 09:15:40;;;;;;;;;;;;;;;;;;5092729;28;2042;-44
2022/10/18 09:18:07;;;;;;;;;;;;;;;;;;5092340;28;1510;-50
2022/10/18 09:20:55;;;;;;;;;;;;;;;;;;5092267;28;2187;-50
2022/10/18 09:23:25;;;;;;;;;;;;;;;;;;5092130;28;1969;-48
2022/10/18 09:25:55;;;;;;;;;;;;;;;;;;5091885;28;1746;-51
2022/10/18 09:28:22;;;;;;;;;;;;;;;;;;5092170;28;2111;-52
2022/10/18 09:30:58;;;;;;;;;;;;;;;;;;5091970;28;1983;-49
2022/10/18 09:33:31;;;;;;;;;;;;;;;;;;5091906;28;1943;-41
2022/10/18 09:36:03;;;;;;;;;;;;;;;;;;5091771;28;1870;-50
2022/10/18 09:38:33;;;;;;;;;;;;;;;;;;5091319;28;1668;-44
2022/10/18 09:41:09;;;;;;;;;;;;;;;;;;5091792;28;1962;-52
2022/10/18 09:44:00;;;;;;;;;;;;;;;;;;5091770;28;1430;-51
2022/10/18 09:46:31;;;;;;;;;;;;;;;;;;5091611;28;2049;-49
2022/10/18 09:49:00;;;;;;;;;;;;;;;;;;5091009;28;1986;-47
2022/10/18 09:51:35;;;;;;;;;;;;;;;;;;5091059;28;1786;-49
2022/10/18 09:54:17;;;;;;;;;;;;;;;;;;5091489;28;1588;-41
2022/10/18 09:57:05;;;;;;;;;;;;;;;;;;5090920;28;1772;-51
2022/10/18 09:59:38;;;;;;;;;;;;;;;;;;5091318;28;1831;-42
2022/10/18 10:02:08;;;;;;;;;;;;;;;;;;5091412;28;1966;-51
2022/10/18 10:04:35;;;;;;;;;;;;;;;;;;5091230;28;2129;-49
2022/10/18 10:07:05;;;;;;;;;;;;;;;;;;5091357;28;1649;-43
2022/10/18 10:09:43;;;;;;;;;;;;;;;;;;5091148;28;1964;-45
2022/10/18 10:12:34;;;;;;;;;;;;;;;;;;5091436;28;1886;-52
2022/10/18 10:15:21;;;;;;;;;;;;;;;;;;5088389;28;2187;-53
2022/10/18 10:17:57;;;;;;;;;;;;;;;;;;5091348;28;1865;-47
2022/10/18 10:20:27;;;;;;;;;;;;;;;;;;5091185;28;1967;-44
2022/10/18 10:23:03;;;;;;;;;;;;;;;;;;5091371;28;1904;-41
2022/10/18 10:25:33;;;;;;;;;;;;;;;;;;5091090;28;1808;-52
2022/10/18 10:28:04;;;;;;;;;;;;;;;;;;5091266;28;1615;-44
2022/10/18 10:30:35;;;;;;;;;;;;;;;;;;5090782;28;2032;-46
2022/10/18 10:33:03;;;;;;;;;;;;;;;;;;5091169;28;1817;-42
2022/10/18 10:35:32;;;;;;;;;;;;;;;;;;5091015;28;2327;-40
2022/10/18 10:38:22;;;;;;;;;;;;;;;;;;5091176;28;2279;-45
2022/10/18 10:40:49;;;;;;;;;;;;;;;;;;5090753;28;2102;-53
2022/10/18 10:43:21;;;;;;;;;;;;;;;;;;5090966;28;2016;-43
2022/10/18 10:46:14;;;;;;;;;;;;;;;;;;5090763;28;1835;-47
2022/10/18 10:48:54;;;;;;;;;;;;;;;;;;5091099;28;1845;-41
2022/10/18 10:51:42;;;;;;;;;;;;;;;;;;5091504;28;2021;-50
2022/10/18 10:54:19;;;;;;;;;;;;;;;;;;5091175;28;2435;-41
2022/10/18 10:57:03;;;;;;;;;;;;;;;;;;5090963;28;1691;-47
2022/10/18 10:59:40;;;;;;;;;;;;;;;;;;5090963;28;2318;-41
2022/10/18 11:02:20;;;;;;;;;;;;;;;;;;5090520;28;1863;-41
2022/10/18 11:04:51;;;;;;;;;;;;;;;;;;5090744;28;1453;-41
2022/10/18 11:07:25;;;;;;;;;;;;;;;;;;5090647;28;1912;-41
2022/10/18 11:09:52;;;;;;;;;;;;;;;;;;5094470;28;1918;-42
2022/10/18 11:12:27;;;;;;;;;;;;;;;;;;5094450;28;1949;-41
2022/10/18 11:15:10;;;;;;;;;;;;;;;;;;5094509;28;2040;-51
2022/10/18 11:17:43;;;;;;;;;;;;;;;;;;5094567;28;1754;-41
2022/10/18 11:20:13;;;;;;;;;;;;;;;;;;5094844;28;2067;-41
2022/10/18 11:22:49;;;;;;;;;;;;;;;;;;5094208;28;1637;-41
2022/10/18 11:25:17;;;;;;;;;;;;;;;;;;5094333;28;2263;-41
2022/10/18 11:28:02;;;;;;;;;;;;;;;;;;5094231;28;2116;-42
2022/10/18 11:30:57;;;;;;;;;;;;;;;;;;5094253;28;2314;-41
2022/10/18 11:33:24;;;;;;;;;;;;;;;;;;5101147;28;2123;-41
2022/10/18 11:36:17;;;;;;;;;;;;;;;;;;5114704;28;1602;-42
2022/10/18 11:38:50;;;;;;;;;;;;;;;;;;5114550;28;1893;-42
2022/10/18 11:41:21;;;;;;;;;;;;;;;;;;5114469;28;1819;-53
2022/10/18 11:43:53;;;;;;;;;;;;;;;;;;5114224;28;1739;-41
2022/10/18 11:46:49;;;;;;;;;;;;;;;;;;5113978;28;1701;-40
2022/10/18 11:49:29;;;;;;;;;;;;;;;;;;5114615;28;1818;-42
2022/10/18 11:51:59;;;;;;;;;;;;;;;;;;5112698;28;1724;-42
2022/10/18 11:55:00;;;;;;;;;;;;;;;;;;5113079;28;1956;-42
2022/10/18 11:57:30;;;;;;;;;;;;;;;;;;5090665;28;1570;-42
2022/10/18 12:00:07;;;;;;;;;;;;;;;;;;5113914;28;1617;-42
2022/10/18 12:02:53;;;;;;;;;;;;;;;;;;5113649;28;1932;-44
2022/10/18 12:05:21;;;;;;;;;;;;;;;;;;5113822;28;1300;-42
2022/10/18 12:07:57;;;;;;;;;;;;;;;;;;5113849;28;1639;-41
2022/10/18 12:10:24;;;;;;;;;;;;;;;;;;5113362;28;1983;-42
2022/10/18 12:13:06;;;;;;;;;;;;;;;;;;5113756;28;1875;-41
2022/10/18 12:15:35;;;;;;;;;;;;;;;;;;5113863;28;1844;-46
2022/10/18 12:18:05;;;;;;;;;;;;;;;;;;5113624;28;2005;-41
2022/10/18 12:20:34;;;;;;;;;;;;;;;;;;5113068;28;1896;-45
2022/10/18 12:23:03;;;;;;;;;;;;;;;;;;5113557;28;2005;-40
2022/10/18 12:25:32;;;;;;;;;;;;;;;;;;5113652;28;1783;-44
2022/10/18 12:27:59;;;;;;;;;;;;;;;;;;5113200;28;1643;-47
2022/10/18 12:30:50;;;;;;;;;;;;;;;;;;5113605;28;2189;-48
2022/10/18 12:33:22;;;;;;;;;;;;;;;;;;5106795;28;2175;-50
2022/10/18 12:36:13;;;;;;;;;;;;;;;;;;5092858;28;1960;-45
2022/10/18 12:38:42;;;;;;;;;;;;;;;;;;5092973;28;1693;-51
2022/10/18 12:41:18;;;;;;;;;;;;;;;;;;5092922;28;1817;-43
2022/10/18 12:43:50;;;;;;;;;;;;;;;;;;5093151;28;1567;-42
2022/10/18 12:46:17;;;;;;;;;;;;;;;;;;5092904;28;2076;-48
2022/10/18 12:48:51;;;;;;;;;;;;;;;;;;5092753;28;2240;-48
2022/10/18 12:51:19;;;;;;;;;;;;;;;;;;5092762;28;2160;-41
2022/10/18 12:54:07;;;;;;;;;;;;;;;;;;5092592;28;1840;-41
2022/10/18 12:56:36;;;;;;;;;;;;;;;;;;5092570;28;1994;-41
2022/10/18 12:59:33;;;;;;;;;;;;;;;;;;5092994;28;2070;-41
2022/10/18 13:02:00;;;;;;;;;;;;;;;;;;5092308;28;1898;-41
2022/10/18 13:04:28;;;;;;;;;;;;;;;;;;5092507;28;2158;-40
2022/10/18 13:06:58;;;;;;;;;;;;;;;;;;5092314;28;1482;-49
2022/10/18 13:09:27;;;;;;;;;;;;;;;;;;5092093;28;2107;-41
2022/10/18 13:12:20;;;;;;;;;;;;;;;;;;5092111;28;2020;-41
2022/10/18 13:14:59;;;;;;;;;;;;;;;;;;5069176;28;1951;-41
2022/10/18 13:18:00;;;;;;;;;;;;;;;;;;5092267;28;1680;-40
2022/10/18 13:20:39;;;;;;;;;;;;;;;;;;5092196;28;1916;-45
2022/10/18 13:23:27;;;;;;;;;;;;;;;;;;5092242;28;1512;-49
2022/10/18 13:25:55;;;;;;;;;;;;;;;;;;5082483;28;1704;-40
2022/10/18 13:28:42;;;;;;;;;;;;;;;;;;5092038;28;1875;-47
2022/10/18 13:31:16;;;;;;;;;;;;;;;;;;5091198;28;1980;-48
2022/10/18 13:33:44;;;;;;;;;;;;;;;;;;5091485;28;2067;-41
2022/10/18 13:36:16;;;;;;;;;;;;;;;;;;5090384;28;2644;-41
2022/10/18 13:38:57;;;;;;;;;;;;;;;;;;5091810;28;2082;-40
2022/10/18 13:41:28;;;;;;;;;;;;;;;;;;5092066;28;1716;-50
2022/10/18 13:44:24;;;;;;;;;;;;;;;;;;5091874;28;2121;-52
2022/10/18 13:46:55;;;;;;;;;;;;;;;;;;5090307;28;1693;-53
2022/10/18 13:49:32;;;;;;;;;;;;;;;;;;5091919;28;2256;-49
2022/10/18 13:52:22;;;;;;;;;;;;;;;;;;5091507;28;2085;-51
2022/10/18 13:55:04;;;;;;;;;;;;;;;;;;5091415;28;1811;-52
2022/10/18 13:57:38;;;;;;;;;;;;;;;;;;5091405;28;1774;-50
2022/10/18 14:00:24;;;;;;;;;;;;;;;;;;5090047;28;2271;-50
2022/10/18 14:03:18;;;;;;;;;;;;;;;;;;5091195;28;1987;-51
2022/10/18 14:06:10;;;;;;;;;;;;;;;;;;5091485;28;1812;-52
2022/10/18 14:08:46;;;;;;;;;;;;;;;;;;5091282;28;2084;-50
2022/10/18 14:11:22;;;;;;;;;;;;;;;;;;5091094;28;2338;-44
2022/10/18 14:14:08;;;;;;;;;;;;;;;;;;5091059;28;2062;-50
2022/10/18 14:16:55;;;;;;;;;;;;;;;;;;5091357;28;1536;-43
2022/10/18 14:19:24;;;;;;;;;;;;;;;;;;5091401;28;2180;-49
2022/10/18 14:21:58;;;;;;;;;;;;;;;;;;5090944;28;1515;-46
2022/10/18 14:24:28;;;;;;;;;;;;;;;;;;5091548;28;2168;-52
2022/10/18 14:27:11;;;;;;;;;;;;;;;;;;5091476;28;2373;-41
2022/10/18 14:29:39;;;;;;;;;;;;;;;;;;5090876;28;1506;-53
2022/10/18 14:32:09;;;;;;;;;;;;;;;;;;5091091;28;1969;-49
2022/10/18 14:34:36;;;;;;;;;;;;;;;;;;5108668;28;1846;-50
2022/10/18 14:37:04;;;;;;;;;;;;;;;;;;5111541;28;1748;-53
2022/10/18 14:39:32;;;;;;;;;;;;;;;;;;5111143;28;2328;-49
2022/10/18 14:41:59;;;;;;;;;;;;;;;;;;5111493;28;2152;-42
2022/10/18 14:44:27;;;;;;;;;;;;;;;;;;5115320;28;1424;-49
2022/10/18 14:46:58;;;;;;;;;;;;;;;;;;5115343;28;1722;-51
2022/10/18 14:49:25;;;;;;;;;;;;;;;;;;5115640;28;1574;-48
2022/10/18 14:51:54;;;;;;;;;;;;;;;;;;5115378;28;1929;-49
2022/10/18 14:54:22;;;;;;;;;;;;;;;;;;5115508;27;2264;-48
2022/10/18 14:56:52;;;;;;;;;;;;;;;;;;5114363;28;1698;-47
2022/10/18 14:59:20;;;;;;;;;;;;;;;;;;5113830;28;2027;-48
2022/10/18 15:01:57;;;;;;;;;;;;;;;;;;5115080;28;1993;-50
2022/10/18 15:04:31;;;;;;;;;;;;;;;;;;5115022;28;2307;-51
2022/10/18 15:07:00;;;;;;;;;;;;;;;;;;5115336;28;1864;-52
2022/10/18 15:09:28;;;;;;;;;;;;;;;;;;5115403;28;2372;-52
2022/10/18 15:11:56;;;;;;;;;;;;;;;;;;5115032;28;1911;-52
2022/10/18 15:14:26;;;;;;;;;;;;;;;;;;5115188;28;1875;-51
2022/10/18 15:16:58;;;;;;;;;;;;;;;;;;5114975;28;2128;-48
2022/10/18 15:19:29;;;;;;;;;;;;;;;;;;5114918;28;1684;-50
2022/10/18 15:21:58;;;;;;;;;;;;;;;;;;5115077;28;2262;-47
2022/10/18 15:25:02;;;;;;;;;;;;;;;;;;5114790;28;2019;-49
2022/10/18 15:27:33;;;;;;;;;;;;;;;;;;5114924;28;1354;-52
2022/10/18 15:30:09;;;;;;;;;;;;;;;;;;5113546;28;1660;-49
2022/10/18 15:32:39;;;;;;;;;;;;;;;;;;5113378;28;1967;-45
2022/10/18 15:35:08;;;;;;;;;;;;;;;;;;5094128;28;1921;-51
2022/10/18 15:37:40;;;;;;;;;;;;;;;;;;5094261;28;1932;-50
2022/10/18 15:40:17;;;;;;;;;;;;;;;;;;5094046;28;1585;-50
2022/10/18 15:42:44;;;;;;;;;;;;;;;;;;5094141;28;1849;-50
2022/10/18 15:45:23;;;;;;;;;;;;;;;;;;5093731;28;2164;-51
2022/10/18 15:48:08;;;;;;;;;;;;;;;;;;5092590;28;1757;-51
2022/10/18 15:50:39;;;;;;;;;;;;;;;;;;5093868;28;1915;-49
2022/10/18 15:53:19;;;;;;;;;;;;;;;;;;5093932;28;1961;-47
2022/10/18 15:56:06;;;;;;;;;;;;;;;;;;5092590;28;1930;-47
2022/10/18 15:58:44;;;;;;;;;;;;;;;;;;5094783;28;1858;-51
2022/10/18 16:01:18;;;;;;;;;;;;;;;;;;5114245;28;1841;-48
2022/10/18 16:03:46;;;;;;;;;;;;;;;;;;5113788;28;1286;-47
2022/10/18 16:06:15;;;;;;;;;;;;;;;;;;5109327;28;10021;-54
2022/10/18 16:08:48;;;;;;;;;;;;;;;;;;5113806;28;1903;-46
2022/10/18 16:11:20;;;;;;;;;;;;;;;;;;5107813;28;1972;-48
2022/10/18 16:13:47;;;;;;;;;;;;;;;;;;5093538;28;1915;-52
2022/10/18 16:16:32;;;;;;;;;;;;;;;;;;5093356;28;1963;-51
2022/10/18 16:19:01;;;;;;;;;;;;;;;;;;5093596;28;1564;-51
2022/10/18 16:21:30;;;;;;;;;;;;;;;;;;5093197;28;2113;-50
2022/10/18 16:23:57;;;;;;;;;;;;;;;;;;5092126;28;1933;-47
2022/10/18 16:26:25;;;;;;;;;;;;;;;;;;5092374;28;1399;-46
2022/10/18 16:28:53;;;;;;;;;;;;;;;;;;5092204;28;1952;-49
2022/10/18 16:31:25;;;;;;;;;;;;;;;;;;5092951;28;2199;-51
2022/10/18 16:33:53;;;;;;;;;;;;;;;;;;5092949;28;2028;-46
2022/10/18 16:36:22;;;;;;;;;;;;;;;;;;5093163;28;1909;-52
2022/10/18 16:38:49;;;;;;;;;;;;;;;;;;5092750;28;1506;-48
2022/10/18 16:41:17;;;;;;;;;;;;;;;;;;5091581;28;1845;-47
2022/10/18 16:43:45;;;;;;;;;;;;;;;;;;5092836;28;1612;-51
2022/10/18 16:46:17;;;;;;;;;;;;;;;;;;5092899;28;2097;-47
2022/10/18 16:48:46;;;;;;;;;;;;;;;;;;5092451;28;1828;-46
2022/10/18 16:51:13;;;;;;;;;;;;;;;;;;5092498;28;1913;-48
2022/10/18 16:53:40;;;;;;;;;;;;;;;;;;5092673;28;2336;-46
2022/10/18 16:56:16;;;;;;;;;;;;;;;;;;5092324;28;1429;-42
2022/10/18 16:58:48;;;;;;;;;;;;;;;;;;5092314;28;1546;-50
2022/10/18 17:01:16;;;;;;;;;;;;;;;;;;5091229;28;1895;-51
2022/10/18 17:03:46;;;;;;;;;;;;;;;;;;5092400;28;1869;-50
2022/10/18 17:06:16;;;;;;;;;;;;;;;;;;5092202;28;2152;-52
2022/10/18 17:08:43;;;;;;;;;;;;;;;;;;5092427;28;1791;-51
2022/10/18 17:11:11;;;;;;;;;;;;;;;;;;5092407;28;2247;-48
2022/10/18 17:14:12;;;;;;;;;;;;;;;;;;5092259;28;1934;-42
2022/10/18 17:16:48;;;;;;;;;;;;;;;;;;5092246;28;1735;-50
2022/10/18 17:19:19;;;;;;;;;;;;;;;;;;5092229;28;1666;-47
2022/10/18 17:21:47;;;;;;;;;;;;;;;;;;5092161;28;1687;-50
2022/10/18 17:24:15;;;;;;;;;;;;;;;;;;5092162;28;1933;-52
2022/10/18 17:26:43;;;;;;;;;;;;;;;;;;5092143;28;1811;-46
2022/10/18 17:29:10;;;;;;;;;;;;;;;;;;5091994;28;1724;-49
2022/10/18 17:31:37;;;;;;;;;;;;;;;;;;5092126;28;2213;-49
2022/10/18 17:34:05;;;;;;;;;;;;;;;;;;5091633;28;1826;-50
2022/10/18 17:36:32;;;;;;;;;;;;;;;;;;5092167;28;1923;-49